^^
Station Historical Data
 
Daily Summary for July 21, 2018 Units:  English    Metric   Both
« Previous Day
Next Day »
Daily Weekly Monthly Yearly Custom
  Current: High: Low: Average:
Temperature: 84.9 °F TemperatureF °F 78.3 °F 84.3 °F
Dew Point: 81.3 °F DewpointF °F 76.9 °F 80.7 °F
Humidity: 89% Humidity% 80% 89%
Wind Speed: 2.0mph WindSpeedMPHmph 0.0mph 3.4mph
Wind Gust: 2.9mph WindSpeedGustMPHmph - -
WindWSW - - WSW
Pressure: 29.91 in PressureIn in 29.88 in -
Precipitation: 0.01 in      
Historical Graphs
 
 
Tabular Data for July 21, 2018
Time Temperature Dew Point Pressure Wind Wind Speed Wind Gust Humidity Rainfall Rate (Hourly) Conditions
TemperatureF °F DewpointF °F PressureIn in Calm     Humidity% HourlyPrecipIn in Conditions
00:04 81.7 °F 79.5 °F 29.95 in NW 2.3 mph 2.0 mph 93% 0.00 in RA
00:09 81.7 °F 79.5 °F 29.95 in NW 2.3 mph 2.0 mph 93% 0.00 in RA
00:14 81.7 °F 79.5 °F 29.95 in NW 2.3 mph 2.0 mph 93% 0.00 in CLR
00:19 82.2 °F 79.7 °F 29.95 in West 4.0 mph 2.9 mph 92% 0.00 in CLR
00:24 82.2 °F 79.7 °F 29.95 in NW 4.9 mph 2.9 mph 92% 0.00 in CLR
00:29 82.6 °F 80.0 °F 29.95 in NW 4.6 mph 4.0 mph 92% 0.00 in CLR
00:34 82.6 °F 79.7 °F 29.95 in West 3.5 mph 4.0 mph 91% 0.00 in CLR
00:39 82.6 °F 79.7 °F 29.95 in West 4.6 mph 2.9 mph 91% 0.00 in CLR
00:44 82.6 °F 79.7 °F 29.95 in WNW 2.3 mph 2.9 mph 91% 0.00 in CLR
00:49 82.6 °F 79.7 °F 29.95 in WNW 1.2 mph 2.9 mph 91% 0.00 in CLR
00:54 82.6 °F 80.0 °F 29.95 in NW 2.3 mph 2.0 mph 92% 0.00 in CLR
00:59 82.6 °F 80.0 °F 29.95 in West 4.6 mph 2.0 mph 92% 0.00 in CLR
01:04 82.6 °F 80.0 °F 29.95 in NW 3.5 mph 2.0 mph 92% 0.00 in CLR
01:09 82.4 °F 79.8 °F 29.95 in WNW 3.5 mph 2.9 mph 92% 0.00 in CLR
01:14 82.2 °F 79.7 °F 29.95 in WNW 3.5 mph 2.0 mph 92% 0.00 in CLR
01:19 82.2 °F 79.7 °F 29.95 in West 4.6 mph 2.9 mph 92% 0.00 in CLR
01:24 82.2 °F 79.7 °F 29.95 in WNW 4.0 mph 2.9 mph 92% 0.00 in CLR
01:29 82.2 °F 79.7 °F 29.95 in NW 3.5 mph 2.9 mph 92% 0.00 in CLR
01:34 82.0 °F 79.5 °F 29.95 in WNW 3.5 mph 2.9 mph 92% 0.00 in CLR
01:39 82.0 °F 79.5 °F 29.95 in WNW 2.3 mph 2.0 mph 92% 0.00 in CLR
01:44 81.9 °F 79.3 °F 29.95 in WNW 3.5 mph 2.0 mph 92% 0.00 in CLR
01:49 81.9 °F 79.3 °F 29.95 in Calm   0.9 mph 92% 0.00 in CLR
01:54 81.7 °F 79.1 °F 29.95 in Calm     92% 0.00 in CLR
01:59 81.7 °F 79.1 °F 29.95 in Calm     92% 0.00 in CLR
02:04 81.7 °F 79.1 °F 29.95 in Calm     92% 0.00 in CLR
02:09 81.1 °F 78.9 °F 29.95 in Calm     93% 0.00 in CLR
02:14 80.8 °F 78.6 °F 29.95 in Calm     93% 0.00 in CLR
02:19 80.6 °F 78.4 °F 29.95 in Calm     93% 0.00 in CLR
02:24 80.4 °F 78.5 °F 29.95 in Calm     94% 0.00 in CLR
02:29 80.2 °F 78.4 °F 29.95 in Calm     94% 0.00 in CLR
02:34 80.2 °F 78.4 °F 29.95 in Calm     94% 0.00 in CLR
02:39 80.1 °F 78.5 °F 29.95 in Calm     95% 0.00 in CLR
02:44 80.1 °F 78.5 °F 29.96 in Calm     95% 0.00 in CLR
02:49 80.2 °F 78.7 °F 29.95 in Calm     95% 0.00 in CLR
02:54 80.1 °F 78.5 °F 29.96 in Calm     95% 0.00 in CLR
02:59 80.1 °F 78.5 °F 29.96 in Calm     95% 0.00 in CLR
03:04 79.9 °F 78.3 °F 29.96 in Calm     95% 0.00 in CLR
03:09 79.9 °F 78.3 °F 29.96 in Calm     95% 0.00 in CLR
03:14 79.9 °F 78.3 °F 29.95 in Calm     95% 0.00 in CLR
03:19 79.7 °F 78.5 °F 29.95 in Calm     96% 0.00 in CLR
03:24 79.5 °F 78.3 °F 29.94 in Calm     96% 0.00 in CLR
03:29 79.5 °F 78.3 °F 29.94 in Calm     96% 0.00 in CLR
03:34 79.5 °F 78.3 °F 29.93 in Calm     96% 0.00 in CLR
03:39 79.3 °F 78.1 °F 29.93 in Calm     96% 0.00 in CLR
03:44 79.3 °F 78.1 °F 29.93 in Calm     96% 0.00 in CLR
03:49 79.3 °F 78.1 °F 29.94 in Calm     96% 0.00 in CLR
03:54 79.3 °F 78.1 °F 29.94 in Calm     96% 0.00 in CLR
03:59 79.5 °F 78.3 °F 29.94 in Calm     96% 0.00 in CLR
04:04 79.5 °F 78.3 °F 29.94 in Calm     96% 0.00 in CLR
04:09 79.3 °F 78.1 °F 29.94 in Calm     96% 0.00 in CLR
04:14 79.3 °F 78.1 °F 29.94 in Calm     96% 0.00 in CLR
04:19 79.3 °F 78.1 °F 29.93 in Calm     96% 0.00 in CLR
04:24 79.2 °F 77.9 °F 29.93 in Calm     96% 0.00 in CLR
04:29 79.0 °F 77.7 °F 29.93 in Calm     96% 0.00 in CLR
04:34 79.0 °F 78.1 °F 29.93 in Calm     97% 0.00 in CLR
04:39 79.0 °F 78.1 °F 29.93 in Calm     97% 0.00 in CLR
04:44 79.0 °F 78.1 °F 29.93 in Calm     97% 0.00 in CLR
04:49 78.8 °F 77.6 °F 29.93 in Calm     96% 0.00 in CLR
04:54 79.0 °F 78.1 °F 29.93 in Calm     97% 0.00 in CLR
04:59 79.0 °F 78.1 °F 29.93 in Calm     97% 0.00 in CLR
05:04 78.8 °F 77.9 °F 29.93 in Calm     97% 0.00 in CLR
05:09 78.6 °F 77.4 °F 29.93 in Calm     96% 0.00 in CLR
05:14 78.6 °F 77.7 °F 29.93 in Calm     97% 0.00 in CLR
05:19 78.6 °F 77.7 °F 29.93 in Calm     97% 0.00 in CLR
05:24 78.4 °F 77.5 °F 29.93 in Calm     97% 0.00 in CLR
05:29 78.4 °F 77.5 °F 29.93 in Calm     97% 0.00 in CLR
05:34 78.4 °F 77.5 °F 29.93 in Calm     97% 0.00 in CLR
05:39 78.3 °F 77.3 °F 29.94 in Calm     97% 0.00 in CLR
05:44 78.4 °F 77.5 °F 29.94 in Calm     97% 0.00 in CLR
05:49 78.4 °F 77.5 °F 29.94 in Calm     97% 0.00 in CLR
05:54 78.3 °F 77.3 °F 29.94 in Calm     97% 0.00 in CLR
05:59 78.3 °F 77.3 °F 29.94 in Calm     97% 0.00 in CLR
06:04 78.4 °F 77.5 °F 29.94 in Calm     97% 0.00 in CLR
06:09 78.4 °F 77.5 °F 29.94 in Calm     97% 0.00 in CLR
06:14 78.4 °F 77.5 °F 29.95 in Calm     97% 0.00 in CLR
06:19 78.8 °F 77.9 °F 29.95 in Calm     97% 0.00 in CLR
06:24 79.0 °F 78.1 °F 29.95 in Calm     97% 0.00 in CLR
06:29 79.0 °F 78.1 °F 29.94 in Calm     97% 0.00 in CLR
06:34 79.3 °F 78.4 °F 29.95 in Calm     97% 0.00 in CLR
06:39 79.7 °F 78.8 °F 29.94 in Calm     97% 0.00 in CLR
06:44 79.7 °F 78.8 °F 29.94 in Calm     97% 0.00 in CLR
06:49 80.6 °F 80.0 °F 29.95 in Calm     98% 0.00 in CLR
06:54 81.0 °F 80.3 °F 29.95 in Calm     98% 0.00 in CLR
06:59 81.1 °F 80.5 °F 29.95 in Calm     98% 0.00 in CLR
07:04 81.3 °F 80.7 °F 29.95 in Calm     98% 0.00 in CLR
07:09 81.7 °F 80.7 °F 29.95 in SE 0.9 mph   97% 0.00 in CLR
07:14 81.9 °F 80.9 °F 29.95 in Calm     97% 0.00 in CLR
07:19 82.0 °F 81.1 °F 29.96 in Calm     97% 0.00 in CLR
07:24 82.6 °F 81.6 °F 29.96 in WNW 2.9 mph   97% 0.00 in CLR
07:29 82.9 °F 81.7 °F 29.97 in NW 2.3 mph 0.9 mph 96% 0.00 in CLR
07:34 83.7 °F 81.7 °F 29.97 in West 3.5 mph 0.9 mph 94% 0.00 in CLR
07:39 83.7 °F 81.7 °F 29.97 in West 2.3 mph 0.9 mph 94% 0.00 in CLR
07:44 84.9 °F 81.7 °F 29.98 in NNW 4.9 mph 2.0 mph 90% 0.00 in CLR
07:49 85.5 °F 82.2 °F 29.98 in NNW 4.0 mph 2.0 mph 90% 0.00 in CLR
07:54 85.8 °F 82.2 °F 29.98 in NW 6.9 mph 2.9 mph 89% 0.00 in CLR
07:59 86.2 °F 81.9 °F 29.98 in WNW 4.6 mph 2.9 mph 87% 0.00 in CLR
08:04 86.4 °F 82.0 °F 29.99 in WNW 3.5 mph 2.9 mph 87% 0.00 in CLR
08:09 86.5 °F 81.8 °F 29.99 in WSW 4.9 mph 2.9 mph 86% 0.00 in CLR
08:14 86.7 °F 82.0 °F 29.99 in WSW 3.5 mph 4.0 mph 86% 0.00 in CLR
08:19 86.7 °F 82.0 °F 29.99 in Calm   4.0 mph 86% 0.00 in CLR
08:24 86.9 °F 81.8 °F 30.00 in West 4.6 mph 4.0 mph 85% 0.00 in CLR
08:29 86.7 °F 81.7 °F 30.00 in WSW 6.9 mph 4.0 mph 85% 0.00 in CLR
08:34 87.1 °F 82.0 °F 30.00 in West 5.8 mph 2.9 mph 85% 0.00 in CLR
08:39 87.1 °F 82.4 °F 30.00 in West 8.1 mph 2.9 mph 86% 0.00 in CLR
08:44 87.1 °F 82.0 °F 30.00 in SSW 4.6 mph 4.0 mph 85% 0.00 in CLR
08:49 87.4 °F 82.4 °F 30.00 in East 6.9 mph 4.0 mph 85% 0.00 in CLR
08:54 88.0 °F 82.9 °F 30.00 in South 4.6 mph 4.0 mph 85% 0.00 in CLR
08:59 87.8 °F 82.7 °F 30.00 in SSW 4.6 mph 2.9 mph 85% 0.00 in CLR
09:04 87.8 °F 82.7 °F 30.00 in NW 6.9 mph 2.9 mph 85% 0.00 in CLR
09:09 88.0 °F 82.9 °F 29.99 in NW 4.9 mph 2.9 mph 85% 0.00 in CLR
09:14 88.0 °F 82.9 °F 29.99 in WNW 4.9 mph 2.9 mph 85% 0.00 in CLR
09:19 87.6 °F 82.5 °F 29.99 in West 4.9 mph 2.9 mph 85% 0.00 in CLR
09:24 87.8 °F 83.1 °F 29.98 in SW 2.3 mph 2.9 mph 86% 0.00 in CLR
09:29 87.8 °F 82.7 °F 29.98 in West 4.6 mph 2.0 mph 85% 0.00 in CLR
09:34 88.0 °F 83.3 °F 29.99 in NNW 2.3 mph 2.0 mph 86% 0.00 in CLR
09:39 88.3 °F 83.3 °F 29.99 in NW 1.2 mph 2.0 mph 85% 0.00 in CLR
09:44 88.0 °F 82.9 °F 29.99 in NW 3.5 mph 2.9 mph 85% 0.00 in CLR
09:49 87.4 °F 82.7 °F 29.99 in WSW 5.8 mph 4.0 mph 86% 0.00 in CLR
09:54 87.3 °F 82.6 °F 29.99 in West 6.9 mph 4.0 mph 86% 0.00 in CLR
09:59 87.3 °F 82.6 °F 29.99 in WNW 10.4 mph 4.0 mph 86% 0.00 in CLR
10:04 87.3 °F 82.6 °F 29.99 in West 1.2 mph 4.9 mph 86% 0.00 in CLR
10:09 87.3 °F 82.6 °F 29.99 in West 1.2 mph 4.9 mph 86% 0.00 in CLR
10:14 87.4 °F 82.7 °F 29.99 in NW 8.1 mph 4.9 mph 86% 0.00 in CLR
10:19 87.4 °F 82.7 °F 29.99 in NW 3.5 mph 4.9 mph 86% 0.00 in CLR
10:24 87.4 °F 82.7 °F 29.99 in WNW 10.9 mph 4.9 mph 86% 0.00 in CLR
10:29 87.4 °F 82.4 °F 29.99 in WNW 10.4 mph 6.0 mph 85% 0.00 in CLR
10:34 87.4 °F 82.7 °F 29.99 in West 8.9 mph 6.9 mph 86% 0.00 in CLR
10:39 87.3 °F 82.6 °F 29.98 in West 11.5 mph 6.9 mph 86% 0.00 in CLR
10:44 87.3 °F 82.9 °F 29.97 in WSW 8.1 mph 6.0 mph 87% 0.00 in CLR
10:49 87.4 °F 83.1 °F 29.97 in West 6.0 mph 4.9 mph 87% 0.00 in CLR
10:54 87.6 °F 82.9 °F 29.97 in SE 9.2 mph 4.9 mph 86% 0.00 in CLR
10:59 87.8 °F 83.1 °F 29.97 in SSW 9.2 mph 4.9 mph 86% 0.00 in CLR
11:04 88.0 °F 83.3 °F 29.96 in East 5.8 mph 4.9 mph 86% 0.00 in CLR
11:09 88.3 °F 82.9 °F 29.95 in SW 11.5 mph 4.9 mph 84% 0.00 in CLR
11:14 88.3 °F 82.9 °F 29.94 in NNW 2.3 mph 4.9 mph 84% 0.00 in CLR
11:19 88.3 °F 82.9 °F 29.94 in NNW 2.3 mph 4.9 mph 84% 0.00 in CLR
11:24 88.9 °F 83.4 °F 29.95 in NW 14.1 mph 6.0 mph 84% 0.00 in CLR
11:29 88.3 °F 82.9 °F 29.95 in WNW 6.9 mph 6.0 mph 84% 0.00 in CLR
11:34 88.0 °F 82.5 °F 29.97 in WNW 8.9 mph 6.0 mph 84% 0.00 in CLR
11:39 87.6 °F 82.5 °F 29.97 in ESE 15.0 mph 6.9 mph 85% 0.00 in CLR
11:44 87.3 °F 82.6 °F 29.97 in WNW 16.1 mph 6.0 mph 86% 0.00 in CLR
11:49 86.9 °F 82.6 °F 29.96 in WNW 6.9 mph 6.0 mph 87% 0.00 in CLR
11:54 86.5 °F 82.6 °F 29.96 in NW 9.2 mph 6.0 mph 88% 0.00 in CLR
11:59 86.2 °F 82.6 °F 29.96 in SW 6.9 mph 4.9 mph 89% 0.00 in CLR
12:04 85.8 °F 82.9 °F 29.97 in WNW 8.1 mph 4.9 mph 91% 0.01 in RA
12:09 84.9 °F 81.3 °F 29.97 in NE 2.3 mph 2.9 mph 89% 0.01 in RA
12:14 84.0 °F 80.1 °F 29.97 in NNE 2.3 mph 2.0 mph 88% 0.01 in
12:19 82.9 °F 78.0 °F 29.96 in ENE 2.3 mph 2.0 mph 85% 0.01 in
12:24 82.9 °F 78.0 °F 29.96 in ENE 2.3 mph 2.0 mph 85% 0.01 in
12:29 80.1 °F 76.9 °F 29.94 in Calm   0.9 mph 90% 0.01 in
12:34 80.1 °F 77.5 °F 29.94 in Calm     92% 0.01 in
12:39 80.2 °F 78.0 °F 29.94 in Calm     93% 0.01 in
12:44 80.8 °F 78.9 °F 29.94 in Calm     94% 0.01 in
12:49 81.3 °F 79.7 °F 29.93 in Calm     95% 0.01 in
12:54 82.6 °F 81.3 °F 29.93 in WNW 3.5 mph 0.9 mph 96% 0.01 in
12:59 83.3 °F 81.7 °F 29.93 in West 2.3 mph 2.0 mph 95% 0.01 in
13:04 84.0 °F 82.1 °F 29.94 in WNW 9.2 mph 2.9 mph 94% 0.00 in CLR
13:09 84.4 °F 82.1 °F 29.94 in NW 3.5 mph 2.9 mph 93% 0.00 in CLR
13:14 84.6 °F 82.0 °F 29.95 in WNW 2.0 mph 2.0 mph 92% 0.00 in CLR
13:19 84.7 °F 81.8 °F 29.95 in NW 4.6 mph 2.0 mph 91% 0.00 in CLR
13:24 85.1 °F 82.2 °F 29.95 in West 4.6 mph 2.0 mph 91% 0.00 in CLR
13:29 85.3 °F 82.4 °F 29.96 in Calm   2.0 mph 91% 0.00 in CLR
13:34 85.3 °F 82.4 °F 29.96 in Calm   2.0 mph 91% 0.00 in CLR
13:39 85.6 °F 82.7 °F 29.96 in Calm   0.9 mph 91% 0.00 in CLR
13:44 85.6 °F 82.4 °F 29.96 in Calm     90% 0.00 in CLR
13:49 85.5 °F 82.2 °F 29.96 in Calm     90% 0.00 in CLR
13:54 85.3 °F 81.7 °F 29.95 in Calm     89% 0.00 in CLR
13:59 85.3 °F 82.0 °F 29.96 in Calm     90% 0.00 in CLR
14:04 85.6 °F 82.0 °F 29.96 in Calm     89% 0.00 in CLR
14:09 85.8 °F 81.9 °F 29.95 in Calm     88% 0.00 in CLR
14:14 86.4 °F 82.4 °F 29.95 in ESE 3.5 mph   88% 0.00 in CLR
14:19 86.4 °F 81.7 °F 29.95 in East 6.0 mph 2.0 mph 86% 0.00 in CLR
14:24 85.6 °F 81.7 °F 29.95 in SSE 4.6 mph 2.9 mph 88% 0.00 in CLR
14:29 86.2 °F 82.6 °F 29.95 in SE 2.9 mph 2.9 mph 89% 0.00 in CLR
14:34 86.5 °F 82.9 °F 29.95 in SE 2.9 mph 2.9 mph 89% 0.00 in CLR
14:39 87.3 °F 82.6 °F 29.95 in SE 3.5 mph 2.0 mph 86% 0.00 in CLR
14:44 88.0 °F 82.5 °F 29.94 in Calm   0.9 mph 84% 0.00 in CLR
14:49 88.5 °F 82.7 °F 29.94 in SSE 2.3 mph 0.9 mph 83% 0.00 in CLR
14:54 89.1 °F 82.8 °F 29.94 in SE 2.0 mph 0.9 mph 82% 0.00 in CLR
14:59 89.8 °F 83.5 °F 29.93 in SW 3.5 mph 0.9 mph 82% 0.00 in CLR
15:04 90.0 °F 83.3 °F 29.93 in SSE 4.6 mph 0.9 mph 81% 0.00 in CLR
15:09 89.8 °F 82.8 °F 29.93 in South 2.3 mph 0.9 mph 80% 0.00 in CLR
15:14 89.8 °F 83.2 °F 29.93 in SSE 4.0 mph 2.0 mph 81% 0.00 in CLR
15:19 89.8 °F 83.5 °F 29.93 in SSE 2.0 mph 2.0 mph 82% 0.00 in CLR
15:24 89.8 °F 83.5 °F 29.93 in SSE 2.3 mph 2.0 mph 82% 0.00 in CLR
15:29 90.1 °F 83.5 °F 29.92 in SSW 2.3 mph 2.0 mph 81% 0.00 in CLR
15:34 90.0 °F 83.3 °F 29.91 in South 3.5 mph 2.0 mph 81% 0.00 in CLR
15:39 90.0 °F 83.3 °F 29.91 in SW 3.5 mph 2.0 mph 81% 0.00 in CLR
15:44 89.6 °F 83.4 °F 29.91 in SSE 3.5 mph 2.0 mph 82% 0.00 in CLR
15:49 89.8 °F 83.9 °F 29.91 in SSW 3.5 mph 2.0 mph 83% 0.00 in CLR
15:54 89.8 °F 83.5 °F 29.91 in SSW 3.5 mph 0.9 mph 82% 0.00 in CLR
15:59 90.1 °F 83.9 °F 29.91 in SSW 4.9 mph 0.9 mph 82% 0.00 in CLR
16:04 90.1 °F 83.5 °F 29.91 in WSW 2.3 mph 2.0 mph 81% 0.00 in CLR
16:09 89.8 °F 83.5 °F 29.91 in South 3.5 mph 2.0 mph 82% 0.00 in CLR
16:14 89.6 °F 83.7 °F 29.91 in West 4.0 mph 2.0 mph 83% 0.00 in CLR
16:19 89.6 °F 83.7 °F 29.91 in West 4.0 mph 2.0 mph 83% 0.00 in CLR
16:24 89.4 °F 83.6 °F 29.90 in SSW 4.0 mph 2.0 mph 83% 0.00 in CLR
16:29 89.4 °F 83.6 °F 29.90 in WNW 5.8 mph 2.9 mph 83% 0.00 in CLR
16:34 89.4 °F 83.9 °F 29.90 in SSW 3.5 mph 2.9 mph 84% 0.00 in CLR
16:39 89.6 °F 83.7 °F 29.90 in WSW 2.3 mph 2.0 mph 83% 0.00 in CLR
16:44 89.8 °F 83.5 °F 29.90 in SW 6.0 mph 2.0 mph 82% 0.00 in CLR
16:49 89.8 °F 83.9 °F 29.90 in West 4.6 mph 2.9 mph 83% 0.00 in CLR
16:54 89.8 °F 83.5 °F 29.90 in NNE 5.8 mph 2.9 mph 82% 0.00 in CLR
16:59 89.4 °F 83.2 °F 29.90 in East 8.1 mph 2.9 mph 82% 0.00 in CLR
17:04 89.4 °F 83.2 °F 29.90 in SE 3.5 mph 2.9 mph 82% 0.00 in CLR
17:09 89.8 °F 83.9 °F 29.89 in SW 3.5 mph 2.0 mph 83% 0.00 in CLR
17:14 89.4 °F 83.2 °F 29.89 in SW 5.8 mph 2.9 mph 82% 0.00 in CLR
17:19 89.1 °F 83.2 °F 29.90 in NW 5.8 mph 4.0 mph 83% 0.00 in CLR
17:24 89.1 °F 83.2 °F 29.89 in WSW 4.6 mph 2.9 mph 83% 0.00 in CLR
17:29 89.1 °F 82.8 °F 29.89 in WNW 4.0 mph 2.0 mph 82% 0.00 in CLR
17:34 89.1 °F 82.8 °F 29.89 in SE 4.6 mph 2.9 mph 82% 0.00 in CLR
17:39 88.7 °F 82.9 °F 29.88 in SW 5.8 mph 4.0 mph 83% 0.00 in CLR
17:44 88.5 °F 82.7 °F 29.88 in West 3.5 mph 2.9 mph 83% 0.00 in CLR
17:49 88.5 °F 82.7 °F 29.88 in West 4.6 mph 2.9 mph 83% 0.00 in CLR
17:54 88.3 °F 82.5 °F 29.88 in SW 6.0 mph 2.9 mph 83% 0.00 in CLR
17:59 88.0 °F 82.2 °F 29.88 in SW 9.2 mph 4.0 mph 83% 0.00 in CLR
18:04 87.8 °F 82.0 °F 29.88 in WSW 4.6 mph 4.0 mph 83% 0.00 in CLR
18:09 87.6 °F 82.2 °F 29.88 in WNW 3.5 mph 4.0 mph 84% 0.00 in CLR
18:14 87.6 °F 82.2 °F 29.89 in NW 4.9 mph 4.0 mph 84% 0.00 in CLR
18:19 87.4 °F 82.0 °F 29.89 in South 5.8 mph 4.0 mph 84% 0.00 in CLR
18:24 87.4 °F 82.4 °F 29.89 in West 3.5 mph 2.9 mph 85% 0.00 in CLR
18:29 87.3 °F 81.8 °F 29.89 in West 4.9 mph 4.0 mph 84% 0.00 in CLR
18:34 87.1 °F 82.0 °F 29.88 in WNW 4.9 mph 4.9 mph 85% 0.00 in CLR
18:39 87.1 °F 82.4 °F 29.88 in West 11.5 mph 4.9 mph 86% 0.00 in CLR
18:44 86.7 °F 82.0 °F 29.89 in West 8.1 mph 4.9 mph 86% 0.00 in CLR
18:49 86.7 °F 82.0 °F 29.88 in West 8.9 mph 4.9 mph 86% 0.00 in CLR
18:54 86.5 °F 81.8 °F 29.88 in WNW 8.1 mph 4.9 mph 86% 0.00 in CLR
18:59 86.5 °F 81.8 °F 29.88 in NW 5.8 mph 4.0 mph 86% 0.00 in CLR
19:04 86.5 °F 81.8 °F 29.89 in WSW 5.8 mph 4.0 mph 86% 0.00 in CLR
19:09 86.4 °F 81.7 °F 29.89 in SSW 6.0 mph 4.9 mph 86% 0.00 in CLR
19:14 86.4 °F 81.7 °F 29.89 in SSW 6.0 mph 4.9 mph 86% 0.00 in CLR
19:19 86.2 °F 81.5 °F 29.89 in West 1.2 mph 4.9 mph 86% 0.00 in CLR
19:24 86.2 °F 81.5 °F 29.89 in West 1.2 mph 4.9 mph 86% 0.00 in CLR
19:29 85.8 °F 81.1 °F 29.89 in WNW 5.8 mph 4.0 mph 86% 0.00 in CLR
19:34 85.8 °F 81.5 °F 29.89 in SSE 8.1 mph 4.0 mph 87% 0.00 in CLR
19:39 85.8 °F 81.1 °F 29.90 in WNW 6.0 mph 4.0 mph 86% 0.00 in CLR
19:44 85.6 °F 81.0 °F 29.90 in West 5.8 mph 4.9 mph 86% 0.00 in CLR
19:49 85.6 °F 81.0 °F 29.90 in WNW 8.9 mph 4.0 mph 86% 0.00 in CLR
19:54 85.6 °F 81.0 °F 29.91 in WNW 5.8 mph 4.9 mph 86% 0.00 in CLR
19:59 85.5 °F 80.8 °F 29.91 in NW 8.1 mph 4.9 mph 86% 0.00 in CLR
20:04 85.5 °F 80.8 °F 29.91 in West 8.1 mph 4.9 mph 86% 0.00 in CLR
20:09 85.5 °F 81.1 °F 29.91 in West 5.8 mph 4.0 mph 87% 0.00 in CLR
20:14 85.3 °F 81.0 °F 29.91 in WNW 6.9 mph 4.0 mph 87% 0.00 in CLR
20:19 85.3 °F 81.0 °F 29.92 in WSW 4.6 mph 4.0 mph 87% 0.00 in CLR
20:24 85.3 °F 81.0 °F 29.92 in WSW 2.3 mph 4.0 mph 87% 0.00 in CLR
20:29 85.3 °F 81.0 °F 29.92 in WSW 2.3 mph 4.0 mph 87% 0.00 in CLR
20:34 85.3 °F 81.0 °F 29.92 in WNW 4.6 mph 4.0 mph 87% 0.00 in CLR
20:39 85.3 °F 81.0 °F 29.92 in WSW 5.8 mph 4.0 mph 87% 0.00 in CLR
20:44 85.3 °F 81.3 °F 29.92 in NW 4.0 mph 2.9 mph 88% 0.00 in CLR
20:49 85.1 °F 81.1 °F 29.92 in West 6.9 mph 2.9 mph 88% 0.00 in CLR
20:54 85.1 °F 81.1 °F 29.92 in WNW 4.6 mph 4.0 mph 88% 0.00 in CLR
20:59 85.1 °F 81.1 °F 29.92 in South 5.8 mph 2.9 mph 88% 0.00 in CLR
21:04 85.1 °F 81.1 °F 29.92 in WNW 5.8 mph 2.9 mph 88% 0.00 in CLR
21:09 85.1 °F 81.5 °F 29.92 in West 4.0 mph 2.9 mph 89% 0.00 in CLR
21:14 85.1 °F 81.5 °F 29.92 in West 4.9 mph 2.9 mph 89% 0.00 in CLR
21:19 85.1 °F 81.5 °F 29.92 in West 4.6 mph 4.0 mph 89% 0.00 in CLR
21:24 85.1 °F 81.5 °F 29.92 in WSW 2.3 mph 2.9 mph 89% 0.00 in CLR
21:29 85.1 °F 81.5 °F 29.92 in West 4.9 mph 2.9 mph 89% 0.00 in CLR
21:34 85.1 °F 81.5 °F 29.92 in West 5.8 mph 2.9 mph 89% 0.00 in CLR
21:39 85.1 °F 81.5 °F 29.92 in WNW 3.5 mph 2.9 mph 89% 0.00 in CLR
21:44 85.1 °F 81.5 °F 29.92 in South 5.8 mph 2.9 mph 89% 0.00 in CLR
21:49 84.9 °F 81.3 °F 29.92 in West 4.9 mph 2.9 mph 89% 0.00 in CLR
21:54 85.1 °F 81.5 °F 29.92 in West 5.8 mph 4.0 mph 89% 0.00 in CLR
21:59 85.1 °F 81.5 °F 29.91 in West 2.9 mph 2.9 mph 89% 0.00 in CLR
22:04 84.9 °F 81.3 °F 29.91 in WSW 2.0 mph 2.9 mph 89% 0.00 in CLR
Panama City, Florida, USA
Compliments of Weather Underground - 3.75 mb